createdAt,value
2022-10-05T08:47:49.192Z,3.13
2022-10-05T08:50:37.910Z,5.10
2022-10-05T08:53:19.518Z,5.00
2022-10-05T08:56:28.609Z,5.18
2022-10-05T08:59:21.073Z,4.38
2022-10-05T09:01:53.794Z,5.40
2022-10-05T09:04:43.255Z,5.22
2022-10-05T09:07:50.552Z,5.10
2022-10-05T09:10:39.397Z,5.20
2022-10-05T09:13:12.486Z,4.80
2022-10-05T09:16:04.534Z,5.22
2022-10-05T09:18:53.880Z,5.53
2022-10-05T09:21:39.251Z,4.85
2022-10-05T09:24:15.366Z,4.85
2022-10-05T09:27:01.658Z,5.40
2022-10-05T09:30:01.249Z,4.82
2022-10-05T09:33:04.752Z,4.80
2022-10-05T09:36:22.645Z,4.72
2022-10-05T09:39:08.319Z,4.07
2022-10-05T09:42:03.093Z,4.95
2022-10-05T09:45:02.105Z,5.60
2022-10-05T09:47:34.988Z,5.03
2022-10-05T09:50:18.246Z,5.63
2022-10-05T09:53:27.384Z,4.68
2022-10-05T09:56:05.450Z,4.85
2022-10-05T09:59:18.142Z,5.10
2022-10-05T10:02:07.201Z,4.38
2022-10-05T10:05:05.870Z,4.43
2022-10-05T10:07:38.945Z,4.40
2022-10-05T10:10:48.325Z,4.38
2022-10-05T10:13:51.846Z,4.50
2022-10-05T10:16:49.768Z,4.00
2022-10-05T10:19:51.341Z,4.07
2022-10-05T10:23:18.725Z,4.65
2022-10-05T10:26:13.033Z,4.30
2022-10-05T10:28:49.314Z,4.38
2022-10-05T10:31:54.409Z,4.97
2022-10-05T10:34:51.396Z,4.43
2022-10-05T10:37:35.362Z,4.25
2022-10-05T10:40:30.490Z,4.15
2022-10-05T10:43:23.437Z,4.33
2022-10-05T10:46:50.520Z,4.10
2022-10-05T10:49:38.907Z,4.88
2022-10-05T10:52:20.883Z,4.38
2022-10-05T10:54:56.667Z,4.25
2022-10-05T10:58:02.062Z,4.38
2022-10-05T11:00:50.128Z,4.38
2022-10-05T11:03:58.954Z,4.40
2022-10-05T11:07:04.121Z,4.30
2022-10-05T11:09:49.254Z,3.15
2022-10-05T11:12:58.149Z,4.07
2022-10-05T11:15:39.481Z,4.20
2022-10-05T11:18:22.982Z,4.47
2022-10-05T11:20:58.973Z,4.30
2022-10-05T11:23:47.310Z,4.72
2022-10-05T11:26:52.246Z,4.93
2022-10-05T11:29:37.249Z,4.80
2022-10-05T11:32:48.556Z,5.95
2022-10-05T11:35:31.301Z,5.20
2022-10-05T11:38:08.243Z,4.18
2022-10-05T11:40:56.779Z,4.05
2022-10-05T11:43:47.565Z,4.03
2022-10-05T11:46:46.299Z,4.95
2022-10-05T11:49:40.261Z,4.38
2022-10-05T11:52:45.076Z,3.92
2022-10-05T11:55:23.633Z,3.80
2022-10-05T11:57:59.088Z,3.97
2022-10-05T12:00:42.988Z,3.08
2022-10-05T12:03:23.294Z,4.30
2022-10-05T12:06:07.363Z,4.18
2022-10-05T12:08:56.778Z,3.78
2022-10-05T12:11:38.646Z,3.58
2022-10-05T12:14:55.333Z,3.75
2022-10-05T12:18:14.107Z,3.50
2022-10-05T12:20:56.068Z,3.42
2022-10-05T12:23:26.936Z,3.70
2022-10-05T12:26:12.108Z,3.47
2022-10-05T12:28:55.826Z,3.92
2022-10-05T12:31:58.048Z,4.30
2022-10-05T12:34:34.013Z,3.95
2022-10-05T12:37:30.106Z,3.35
2022-10-05T12:40:08.725Z,3.63
2022-10-05T12:42:51.980Z,4.70
2022-10-05T12:45:40.493Z,4.05
2022-10-05T12:48:29.347Z,3.55
2022-10-05T12:51:32.035Z,3.55
2022-10-05T12:54:20.256Z,3.75
2022-10-05T12:57:12.333Z,3.45
2022-10-05T12:59:55.232Z,3.67
2022-10-05T13:02:31.120Z,5.40
2022-10-05T13:05:10.017Z,4.68
2022-10-05T13:07:45.848Z,4.25
2022-10-05T13:10:39.558Z,4.43
2022-10-05T13:13:19.048Z,3.40
2022-10-05T13:16:43.434Z,4.80
2022-10-05T13:19:13.706Z,3.85
2022-10-05T13:21:46.630Z,3.60
2022-10-05T13:24:30.377Z,4.55
2022-10-05T13:27:08.667Z,5.03
2022-10-05T13:30:14.478Z,3.85
2022-10-05T13:33:03.384Z,3.60
2022-10-05T13:35:46.316Z,5.65
2022-10-05T13:38:29.059Z,3.83
2022-10-05T13:41:17.073Z,3.83
2022-10-05T13:43:55.987Z,3.60
2022-10-05T13:46:48.665Z,3.67
2022-10-05T13:49:26.594Z,3.03
2022-10-05T13:52:00.195Z,3.95
2022-10-05T13:55:06.998Z,3.97
2022-10-05T13:57:57.926Z,3.90
2022-10-05T14:00:28.249Z,3.90
2022-10-05T14:03:01.129Z,4.25
2022-10-05T14:05:32.074Z,4.25
2022-10-05T14:08:02.119Z,4.30
2022-10-05T14:10:44.119Z,4.72
2022-10-05T14:13:46.990Z,3.47
2022-10-05T14:16:20.479Z,3.30
2022-10-05T14:19:19.181Z,3.85
2022-10-05T14:22:12.340Z,4.20
2022-10-05T14:24:55.797Z,3.83
2022-10-05T14:27:29.065Z,5.18
2022-10-05T14:30:01.681Z,4.00
2022-10-05T14:32:43.474Z,5.20
2022-10-05T14:35:24.125Z,4.13
2022-10-05T14:37:56.231Z,4.10
2022-10-05T14:40:31.691Z,4.32
2022-10-05T14:43:14.242Z,5.50
2022-10-05T14:46:02.722Z,4.35
2022-10-05T14:48:44.032Z,4.70
2022-10-05T14:51:42.358Z,5.00
2022-10-05T14:54:36.111Z,5.30
2022-10-05T14:57:19.977Z,4.22
2022-10-05T15:00:06.642Z,3.90
2022-10-05T15:02:59.946Z,5.20
2022-10-05T15:05:50.996Z,4.50
2022-10-05T15:16:31.799Z,3.60
2022-10-05T15:19:24.438Z,3.50
2022-10-05T15:22:08.228Z,3.85
2022-10-05T15:24:52.699Z,3.50
2022-10-05T15:27:31.852Z,3.63
2022-10-05T15:30:12.178Z,3.17
2022-10-05T15:33:01.933Z,3.40
2022-10-05T15:35:54.387Z,3.40
2022-10-05T15:38:27.601Z,3.20
2022-10-05T15:41:15.209Z,3.40
2022-10-05T15:44:06.435Z,3.40
2022-10-05T15:46:36.825Z,3.63
2022-10-05T15:49:29.295Z,3.45
2022-10-05T15:52:24.119Z,3.70
2022-10-05T15:55:24.986Z,4.75
2022-10-05T15:58:16.768Z,3.28
2022-10-05T16:00:51.906Z,4.00
2022-10-05T16:03:42.205Z,3.85
2022-10-05T16:06:39.345Z,4.60
2022-10-05T16:09:43.425Z,5.20
2022-10-05T16:12:32.377Z,4.25
2022-10-05T16:15:16.384Z,5.30
2022-10-05T16:18:30.458Z,5.78
2022-10-05T16:21:30.710Z,5.13
2022-10-05T16:24:19.451Z,5.05
2022-10-05T16:26:59.879Z,5.45
2022-10-05T16:30:08.776Z,5.32
2022-10-05T16:33:02.861Z,5.80
2022-10-05T16:35:38.999Z,5.85
2022-10-05T16:38:18.100Z,5.45
2022-10-05T16:41:07.123Z,6.22
2022-10-05T16:43:52.486Z,6.22
2022-10-05T16:46:46.903Z,6.13
2022-10-05T16:49:32.769Z,6.50
2022-10-05T16:52:08.224Z,6.07
2022-10-05T16:54:47.681Z,5.82
2022-10-05T16:57:24.849Z,5.72
2022-10-05T17:00:03.905Z,5.30
2022-10-05T17:03:18.454Z,6.15
2022-10-05T17:06:13.007Z,6.45
2022-10-05T17:09:17.263Z,6.88
2022-10-05T17:12:17.743Z,6.25
2022-10-05T17:15:29.755Z,7.10
2022-10-05T17:18:37.742Z,6.20
2022-10-05T17:21:22.694Z,6.53
2022-10-05T17:23:58.626Z,7.22
2022-10-05T17:26:47.737Z,7.72
2022-10-05T17:29:30.666Z,8.23
2022-10-05T17:32:06.905Z,7.65
2022-10-05T17:34:39.810Z,8.50
2022-10-05T17:37:35.993Z,7.40
2022-10-05T17:40:45.200Z,6.85
2022-10-05T17:43:27.097Z,7.88
2022-10-05T17:46:01.612Z,7.13
2022-10-05T17:48:55.818Z,6.65
2022-10-05T17:51:47.444Z,6.88
2022-10-05T17:55:03.308Z,7.60
2022-10-05T17:57:36.945Z,7.30
2022-10-05T18:00:35.475Z,7.68
2022-10-05T18:03:36.178Z,7.32
2022-10-05T18:06:25.049Z,7.82
2022-10-05T18:09:25.904Z,7.63
2022-10-05T18:12:17.142Z,8.32
2022-10-05T18:14:54.267Z,7.60
2022-10-05T18:17:47.841Z,7.50
2022-10-05T18:20:27.119Z,7.22
2022-10-05T18:23:03.008Z,6.88
2022-10-05T18:25:52.913Z,6.75
2022-10-05T18:28:40.295Z,9.60
2022-10-05T18:31:26.827Z,8.27
2022-10-05T18:34:29.465Z,8.32
2022-10-05T18:37:29.723Z,12.82
2022-10-05T18:40:21.482Z,12.65
2022-10-05T18:43:22.899Z,14.77
2022-10-05T18:46:25.231Z,15.65
2022-10-05T18:49:16.446Z,10.93
2022-10-05T18:52:04.716Z,9.80
2022-10-05T18:55:01.362Z,9.65
2022-10-05T18:58:06.970Z,7.70
2022-10-05T19:01:01.707Z,8.43
2022-10-05T19:03:51.321Z,8.60
2022-10-05T19:06:30.055Z,8.02
2022-10-05T19:09:39.005Z,8.35
2022-10-05T19:12:29.670Z,8.90
2022-10-05T19:15:38.365Z,8.20
2022-10-05T19:18:14.176Z,8.32
2022-10-05T19:21:10.485Z,8.55
2022-10-05T19:26:50.108Z,8.15
2022-10-05T19:29:34.532Z,8.88
2022-10-05T19:32:36.918Z,10.38
2022-10-05T19:35:07.293Z,10.05
2022-10-05T19:38:00.784Z,9.68
2022-10-05T19:40:40.556Z,9.57
2022-10-05T19:43:19.049Z,10.73
2022-10-05T19:46:32.074Z,10.05
2022-10-05T19:49:02.420Z,13.20
2022-10-05T19:51:36.140Z,10.35
2022-10-05T19:54:21.667Z,10.85
2022-10-05T19:56:54.511Z,10.73
2022-10-05T19:59:31.606Z,9.80
2022-10-05T20:02:02.602Z,8.80
2022-10-05T20:04:36.989Z,9.80
2022-10-05T20:07:12.473Z,11.80
2022-10-05T20:09:58.270Z,12.52
2022-10-05T20:12:51.013Z,11.75
2022-10-05T20:15:45.498Z,10.18
2022-10-05T20:18:56.555Z,9.50
2022-10-05T20:21:56.930Z,9.13
2022-10-05T20:24:29.526Z,9.70
2022-10-05T20:27:31.381Z,9.50
2022-10-05T20:30:04.620Z,9.30
2022-10-05T20:32:34.817Z,10.13
2022-10-05T20:35:07.177Z,10.02
2022-10-05T20:37:37.299Z,10.30
2022-10-05T20:40:08.216Z,10.77
2022-10-05T20:42:38.467Z,9.82
2022-10-05T20:45:09.475Z,12.40
2022-10-05T20:47:40.714Z,9.57
2022-10-05T20:50:11.008Z,9.15
2022-10-05T20:52:41.139Z,9.70
2022-10-05T20:55:11.790Z,9.88
2022-10-05T20:57:42.444Z,10.15
2022-10-05T21:00:13.569Z,7.88
2022-10-05T21:02:43.718Z,8.27
2022-10-05T21:05:13.955Z,9.75
2022-10-05T21:07:44.892Z,7.82
2022-10-05T21:10:15.230Z,7.85
2022-10-05T21:12:45.902Z,7.68
2022-10-05T21:15:16.197Z,7.47
2022-10-05T21:17:46.263Z,7.68
2022-10-05T21:20:16.665Z,7.63
2022-10-05T21:22:46.699Z,7.85
2022-10-05T21:25:16.876Z,7.50
2022-10-05T21:27:48.786Z,6.72
2022-10-05T21:30:18.932Z,7.45
2022-10-05T21:32:49.111Z,7.40
2022-10-05T21:35:19.289Z,7.95
2022-10-05T21:37:49.403Z,7.63
2022-10-05T21:40:19.521Z,8.65
2022-10-05T21:42:49.738Z,7.45
2022-10-05T21:45:20.152Z,9.13
2022-10-05T21:47:50.554Z,9.20
2022-10-05T21:50:20.826Z,9.27
2022-10-05T21:52:51.989Z,9.32
2022-10-05T21:55:22.137Z,8.45
2022-10-05T21:57:52.538Z,11.48
2022-10-05T22:00:22.969Z,9.45
2022-10-05T22:02:53.015Z,8.30
2022-10-05T22:05:23.280Z,7.97
2022-10-05T22:07:53.749Z,9.07
2022-10-05T22:10:24.128Z,8.88
2022-10-05T22:12:59.774Z,8.27
2022-10-05T22:15:31.541Z,7.28
2022-10-05T22:18:01.705Z,7.18
2022-10-05T22:20:34.722Z,6.93
2022-10-05T22:23:05.113Z,6.78
2022-10-05T22:25:35.597Z,6.15
2022-10-05T22:28:09.597Z,6.38
2022-10-05T22:30:42.050Z,6.93
2022-10-05T22:33:13.406Z,7.13
2022-10-05T22:35:43.881Z,6.50
2022-10-05T22:38:14.377Z,6.65
2022-10-05T22:40:44.796Z,7.35
2022-10-05T22:43:14.929Z,6.78
2022-10-05T22:45:45.261Z,6.80
2022-10-05T22:48:18.816Z,7.35
2022-10-05T22:50:49.607Z,6.47
2022-10-05T22:53:19.855Z,7.43
2022-10-05T22:55:49.908Z,7.50
2022-10-05T22:58:20.293Z,6.75
2022-10-05T23:00:58.894Z,6.05
2022-10-05T23:03:29.790Z,6.57
2022-10-05T23:06:03.756Z,6.75
2022-10-05T23:08:35.829Z,6.20
2022-10-05T23:11:11.744Z,6.75
2022-10-05T23:13:42.013Z,7.50
2022-10-05T23:16:14.699Z,7.47
2022-10-05T23:18:47.363Z,7.28
2022-10-05T23:21:18.843Z,6.95
2022-10-05T23:23:51.269Z,6.97
2022-10-05T23:26:24.325Z,6.75
2022-10-05T23:28:54.472Z,6.82
2022-10-05T23:31:27.617Z,6.90
2022-10-05T23:33:57.862Z,6.55
2022-10-05T23:36:32.998Z,6.90
2022-10-05T23:39:03.628Z,6.93
2022-10-05T23:41:36.739Z,6.07
2022-10-05T23:44:08.086Z,6.72
2022-10-05T23:46:46.739Z,6.43
2022-10-05T23:49:20.002Z,5.72
2022-10-05T23:51:50.175Z,5.93
2022-10-05T23:54:20.348Z,6.18
2022-10-05T23:56:50.454Z,5.90
2022-10-05T23:59:20.523Z,5.97
